Time;durP1;ratioP1;P1;durP2;ratioP2;P2;SDS_P1;SDS_P2;PMS_P1;PMS_P2;Temp;Humidity;BMP_temperature;BMP_pressure;BME280_temperature;BME280_humidity;BME280_pressure;Samples;Min_cycle;Max_cycle;Signal;HPM_P1;HPM_P2
2024/01/28 00:01:51;;;;;;;24.33;13.88;;;;;;;2.89;70.06;102428.72;4131996;28;20069;-62
2024/01/28 00:03:54;;;;;;;24.13;14.25;;;;;;;2.94;69.74;102427.41;4128377;28;20089;-62
2024/01/28 00:05:57;;;;;;;32.40;14.57;;;;;;;2.90;69.89;102423.69;4129898;28;20476;-62
2024/01/28 00:08:01;;;;;;;28.35;13.95;;;;;;;2.89;70.26;102423.56;4131333;28;20424;-62
2024/01/28 00:10:04;;;;;;;22.65;12.50;;;;;;;2.86;70.04;102419.13;4131950;28;20034;-62
2024/01/28 00:12:07;;;;;;;24.23;14.10;;;;;;;2.87;70.08;102420.00;4131843;28;20045;-62
2024/01/28 00:14:09;;;;;;;26.80;13.63;;;;;;;2.98;70.10;102419.16;4132847;28;20042;-62
2024/01/28 00:16:14;;;;;;;24.08;13.18;;;;;;;3.02;69.87;102426.31;4131512;28;20125;-63
2024/01/28 00:18:16;;;;;;;27.08;12.48;;;;;;;3.11;69.73;102424.47;4127986;28;20038;-63
2024/01/28 00:20:19;;;;;;;27.38;13.65;;;;;;;3.11;69.81;102411.59;4131772;28;20038;-63
2024/01/28 00:22:21;;;;;;;25.90;12.48;;;;;;;3.03;70.35;102411.81;4131652;28;20038;-63
2024/01/28 00:24:27;;;;;;;28.75;11.93;;;;;;;3.14;70.65;102411.84;4131433;28;20105;-62
2024/01/28 00:26:30;;;;;;;23.23;12.00;;;;;;;3.14;70.34;102411.84;4131637;28;20457;-62
2024/01/28 00:28:33;;;;;;;25.80;12.00;;;;;;;3.07;70.97;102404.44;4131231;28;20408;-62
2024/01/28 00:30:36;;;;;;;25.45;10.77;;;;;;;3.17;70.24;102405.13;4146139;28;20038;-62
2024/01/28 00:32:41;;;;;;;24.52;12.13;;;;;;;3.11;70.80;102406.47;4129599;28;20074;-62
2024/01/28 00:34:44;;;;;;;;;;;;;;;2.94;71.35;102406.84;4131861;28;20061;-62
2024/01/28 00:36:53;;;;;;;29.23;11.50;;;;;;;3.00;71.28;102409.88;4146642;28;19921;-62
2024/01/28 00:38:55;;;;;;;29.13;13.57;;;;;;;2.99;71.21;102400.38;4131164;28;20042;-62
2024/01/28 00:41:00;;;;;;;28.50;12.25;;;;;;;3.07;71.08;102401.88;4130719;28;20050;-63
2024/01/28 00:43:03;;;;;;;31.52;11.85;;;;;;;2.97;71.38;102395.13;4130735;28;20073;-62
2024/01/28 00:45:07;;;;;;;22.92;10.63;;;;;;;3.02;71.34;102392.91;4131680;28;20448;-62
2024/01/28 00:47:10;;;;;;;34.67;13.67;;;;;;;3.05;71.16;102390.59;4129439;28;20057;-62
2024/01/28 00:49:13;;;;;;;22.38;11.55;;;;;;;3.13;71.53;102392.03;4131205;28;20401;-61
2024/01/28 00:51:16;;;;;;;23.63;11.50;;;;;;;3.15;71.11;102392.16;4130720;28;20042;-62
2024/01/28 00:53:19;;;;;;;24.48;11.63;;;;;;;3.14;70.53;102388.72;4131399;28;20042;-61
2024/01/28 00:55:22;;;;;;;23.17;11.43;;;;;;;3.07;70.54;102383.00;4131375;28;20046;-63
2024/01/28 00:57:26;;;;;;;26.48;11.43;;;;;;;2.99;70.89;102390.09;4131210;28;20038;-62
2024/01/28 00:59:28;;;;;;;25.67;11.50;;;;;;;3.03;71.47;102383.53;4131999;28;20066;-63
2024/01/28 01:01:31;;;;;;;24.23;12.43;;;;;;;3.07;70.92;102388.13;4132302;28;20077;-62
2024/01/28 01:03:34;;;;;;;25.73;10.10;;;;;;;3.07;71.07;102385.56;4130497;28;20046;-62
2024/01/28 01:05:41;;;;;;;23.08;12.45;;;;;;;3.03;71.42;102384.41;4131070;28;20093;-62
2024/01/28 01:07:44;;;;;;;27.83;10.98;;;;;;;2.95;70.58;102371.00;4131430;28;20035;-63
2024/01/28 01:09:46;;;;;;;19.67;10.55;;;;;;;3.00;70.94;102376.47;4130075;28;20038;-61
2024/01/28 01:11:49;;;;;;;24.65;11.75;;;;;;;3.02;70.77;102380.06;4130956;28;20044;-62
2024/01/28 01:13:53;;;;;;;28.98;12.57;;;;;;;3.05;70.40;102376.81;4130053;28;20049;-62
2024/01/28 01:15:56;;;;;;;24.05;11.60;;;;;;;2.94;71.12;102376.91;4145804;28;20125;-62
2024/01/28 01:17:59;;;;;;;24.38;10.75;;;;;;;2.90;71.35;102379.13;4130802;28;20030;-61
2024/01/28 01:20:01;;;;;;;22.83;11.63;;;;;;;2.92;71.43;102372.44;4129538;28;20519;-63
2024/01/28 01:22:04;;;;;;;18.55;9.45;;;;;;;2.88;71.70;102366.19;4131315;28;20042;-63
2024/01/28 01:24:07;;;;;;;21.98;9.13;;;;;;;2.89;71.75;102374.75;4131117;28;20085;-62
2024/01/28 01:26:10;;;;;;;25.67;10.05;;;;;;;2.90;71.56;102368.84;4130334;28;20042;-63
2024/01/28 01:28:13;;;;;;;19.27;10.02;;;;;;;2.90;71.85;102368.84;4131632;28;20057;-61
2024/01/28 01:30:18;;;;;;;27.60;9.98;;;;;;;2.96;71.79;102371.88;4124693;28;20057;-63
2024/01/28 01:32:21;;;;;;;20.08;10.95;;;;;;;2.95;71.21;102367.56;4129067;28;20461;-63
2024/01/28 01:34:24;;;;;;;21.83;10.20;;;;;;;2.95;70.76;102368.44;4130642;28;20109;-62
2024/01/28 01:36:28;;;;;;;28.02;10.77;;;;;;;2.92;71.80;102372.44;4130693;28;20129;-62
2024/01/28 01:38:29;;;;;;;22.55;9.98;;;;;;;2.90;71.91;102363.72;4130739;28;20042;-64
2024/01/28 01:40:32;;;;;;;22.60;10.40;;;;;;;2.91;71.87;102368.09;4127870;28;20047;-62
2024/01/28 01:42:35;;;;;;;22.08;10.38;;;;;;;2.86;71.83;102360.03;4130582;28;20050;-62
2024/01/28 01:44:38;;;;;;;27.50;12.00;;;;;;;2.84;71.84;102360.69;4130730;28;20476;-62
2024/01/28 01:46:45;;;;;;;19.02;10.93;;;;;;;2.86;71.24;102356.56;4127785;28;20420;-62
2024/01/28 01:48:49;;;;;;;20.88;10.60;;;;;;;2.93;71.54;102357.13;4129016;28;20053;-62
2024/01/28 01:50:52;;;;;;;19.83;9.68;;;;;;;2.88;71.38;102355.00;4130635;28;20045;-62
2024/01/28 01:52:55;;;;;;;21.33;9.73;;;;;;;2.88;71.57;102357.59;4130109;28;20451;-61
2024/01/28 01:54:58;;;;;;;17.08;8.77;;;;;;;2.86;71.15;102356.56;4128678;28;20524;-62
2024/01/28 01:57:02;;;;;;;21.38;10.63;;;;;;;2.90;71.81;102354.31;4130529;28;20104;-62
2024/01/28 01:59:06;;;;;;;19.73;9.30;;;;;;;2.83;71.48;102358.88;4130487;28;20101;-62
2024/01/28 02:01:10;;;;;;;21.83;10.48;;;;;;;2.73;71.13;102359.84;4128874;28;20046;-61
2024/01/28 02:03:14;;;;;;;28.48;10.40;;;;;;;2.67;71.57;102352.56;4129541;28;20484;-62
2024/01/28 02:05:17;;;;;;;17.00;9.73;;;;;;;2.67;71.57;102360.28;4130033;28;20419;-62
2024/01/28 02:07:20;;;;;;;23.70;10.65;;;;;;;2.61;71.37;102354.66;4144723;28;20053;-62
2024/01/28 02:09:23;;;;;;;22.45;10.13;;;;;;;2.60;71.58;102345.19;4129549;28;20404;-61
2024/01/28 02:11:27;;;;;;;20.00;10.38;;;;;;;2.55;71.48;102357.66;4129526;28;20097;-63
2024/01/28 02:13:30;;;;;;;21.97;9.10;;;;;;;2.52;71.37;102348.84;4127397;28;20508;-61
2024/01/28 02:15:37;;;;;;;24.58;10.07;;;;;;;2.49;71.72;102343.47;4129781;28;20038;-61
2024/01/28 02:17:40;;;;;;;22.80;10.27;;;;;;;2.47;71.53;102337.31;4129923;28;20042;-61
2024/01/28 02:19:44;;;;;;;19.35;9.88;;;;;;;2.48;71.39;102337.41;4131111;28;20058;-62
2024/01/28 02:21:47;;;;;;;19.23;10.10;;;;;;;2.43;71.80;102329.38;4129157;28;20077;-61
2024/01/28 02:23:50;;;;;;;22.67;10.27;;;;;;;2.41;71.77;102333.50;4130491;28;20059;-62
2024/01/28 02:25:53;;;;;;;21.92;10.35;;;;;;;2.38;71.91;102325.56;4128506;28;20154;-62
2024/01/28 02:27:56;;;;;;;22.75;9.95;;;;;;;2.36;71.27;102331.34;4130750;28;20040;-62
2024/01/28 02:29:59;;;;;;;18.65;10.68;;;;;;;2.26;71.52;102324.59;4130440;28;20073;-62
2024/01/28 02:32:02;;;;;;;21.08;10.52;;;;;;;2.12;71.77;102322.63;4130171;28;20501;-61
2024/01/28 02:34:05;;;;;;;22.10;10.32;;;;;;;2.14;72.21;102328.78;4127472;28;20556;-61
2024/01/28 02:36:08;;;;;;;23.25;11.50;;;;;;;2.16;71.83;102327.22;4129253;28;20516;-61
2024/01/28 02:38:12;;;;;;;22.90;10.13;;;;;;;2.09;72.07;102313.91;4128295;28;20052;-60
2024/01/28 02:40:15;;;;;;;22.27;11.40;;;;;;;2.14;72.19;102313.38;4130303;28;20069;-62
2024/01/28 02:42:18;;;;;;;19.85;9.10;;;;;;;2.12;71.83;102315.84;4130223;28;20038;-62
2024/01/28 02:44:21;;;;;;;25.92;11.32;;;;;;;2.13;71.69;102306.47;4131143;28;20050;-62
2024/01/28 02:46:24;;;;;;;22.08;10.98;;;;;;;2.11;71.81;102315.72;4128769;28;20042;-61
2024/01/28 02:48:27;;;;;;;22.05;11.13;;;;;;;2.06;71.73;102308.56;4128379;28;20077;-62
2024/01/28 02:50:30;;;;;;;18.48;8.70;;;;;;;2.00;71.64;102310.66;4130978;28;20093;-62
2024/01/28 02:52:33;;;;;;;25.42;9.98;;;;;;;1.92;72.04;102302.31;4128760;28;20042;-62
2024/01/28 02:54:36;;;;;;;16.25;9.27;;;;;;;1.93;72.14;102308.38;4129332;28;20057;-62
2024/01/28 02:56:40;;;;;;;20.95;9.40;;;;;;;1.93;71.88;102305.81;4128711;28;20112;-62
2024/01/28 02:58:42;;;;;;;18.70;9.00;;;;;;;1.91;72.54;102299.63;4129576;28;20034;-63
2024/01/28 03:00:45;;;;;;;18.73;9.32;;;;;;;1.91;72.07;102307.31;4130023;28;20511;-62
2024/01/28 03:02:49;;;;;;;21.70;9.40;;;;;;;1.93;71.96;102316.06;4129598;28;20043;-63
2024/01/28 03:04:51;;;;;;;21.10;9.85;;;;;;;1.97;71.85;102314.63;4130494;28;20034;-63
2024/01/28 03:06:53;;;;;;;24.83;10.07;;;;;;;1.97;71.79;102322.31;4131410;28;20042;-63
2024/01/28 03:08:56;;;;;;;17.73;9.43;;;;;;;1.95;71.59;102321.31;4132920;28;20038;-62
2024/01/28 03:11:00;;;;;;;17.00;8.73;;;;;;;1.96;71.69;102318.88;4133089;28;20473;-63
2024/01/28 03:13:04;;;;;;;20.60;8.95;;;;;;;2.04;72.00;102322.03;4133646;28;20170;-63
2024/01/28 03:15:07;;;;;;;22.98;9.50;;;;;;;2.02;71.76;102329.59;4133901;28;20046;-63
2024/01/28 03:17:10;;;;;;;19.30;10.20;;;;;;;1.99;71.75;102329.34;4133785;28;20046;-62
2024/01/28 03:19:13;;;;;;;19.90;9.27;;;;;;;1.94;71.84;102324.63;4132881;28;20481;-62
2024/01/28 03:21:16;;;;;;;21.98;9.55;;;;;;;1.86;72.04;102326.59;4125444;28;20053;-62
2024/01/28 03:23:20;;;;;;;19.65;8.15;;;;;;;1.79;71.98;102332.00;4133658;28;20046;-63
2024/01/28 03:25:23;;;;;;;17.23;7.95;;;;;;;1.85;72.07;102332.50;4133751;28;20053;-62
2024/01/28 03:27:26;;;;;;;14.35;7.47;;;;;;;1.92;71.97;102327.97;4148635;28;20155;-63
2024/01/28 03:29:30;;;;;;;19.75;8.35;;;;;;;1.92;71.64;102335.66;4132872;28;20460;-63
2024/01/28 03:31:33;;;;;;;28.85;9.45;;;;;;;1.90;72.45;102334.66;4133242;28;20035;-63
2024/01/28 03:33:36;;;;;;;18.08;8.32;;;;;;;1.96;72.41;102329.13;4132720;28;20121;-63
2024/01/28 03:35:39;;;;;;;19.77;9.23;;;;;;;1.96;71.79;102334.25;4133444;28;20042;-62
2024/01/28 03:37:40;;;;;;;21.95;9.13;;;;;;;1.93;71.84;102341.72;4133537;28;20129;-63
2024/01/28 03:39:43;;;;;;;25.73;9.07;;;;;;;1.92;72.23;102342.47;4132684;28;20031;-62
2024/01/28 03:41:45;;;;;;;19.65;10.23;;;;;;;1.92;71.84;102338.22;4133082;28;20500;-62
2024/01/28 03:43:48;;;;;;;20.13;8.13;;;;;;;1.85;72.23;102337.63;4133343;28;20445;-62
2024/01/28 03:45:52;;;;;;;21.27;9.07;;;;;;;1.88;72.06;102335.31;4131431;28;20041;-62
2024/01/28 03:47:55;;;;;;;21.48;9.70;;;;;;;1.89;71.91;102331.97;4132223;28;20258;-61
2024/01/28 03:49:59;;;;;;;20.25;8.52;;;;;;;1.84;71.83;102328.13;4131174;28;20034;-62
2024/01/28 03:52:02;;;;;;;20.73;8.73;;;;;;;1.84;72.38;102328.13;4130451;28;20030;-62
2024/01/28 03:54:05;;;;;;;20.88;8.98;;;;;;;1.83;72.56;102327.25;4128249;28;20053;-62
2024/01/28 03:56:09;;;;;;;18.80;8.73;;;;;;;1.87;72.02;102328.38;4132239;28;20408;-62
2024/01/28 03:58:12;;;;;;;21.77;9.63;;;;;;;1.90;72.16;102326.97;4147101;28;20046;-62
2024/01/28 04:00:18;;;;;;;16.65;8.35;;;;;;;1.92;72.03;102321.97;4131559;28;20555;-62
2024/01/28 04:02:22;;;;;;;19.58;8.15;;;;;;;1.95;72.16;102326.44;4125345;28;20497;-62
2024/01/28 04:04:25;;;;;;;22.27;9.40;;;;;;;2.03;71.77;102327.91;4130819;28;20042;-62
2024/01/28 04:06:28;;;;;;;17.77;8.85;;;;;;;2.02;72.28;102324.47;4131109;28;20094;-62
2024/01/28 04:08:31;;;;;;;22.77;9.30;;;;;;;2.05;72.28;102331.53;4131289;28;20474;-62
2024/01/28 04:10:34;;;;;;;22.85;9.25;;;;;;;2.18;71.47;102328.25;4130504;28;20053;-62
2024/01/28 04:12:36;;;;;;;15.45;8.27;;;;;;;2.14;71.76;102323.66;4131953;28;20034;-62
2024/01/28 04:14:39;;;;;;;21.17;8.52;;;;;;;2.12;71.60;102325.19;4130277;28;20489;-62
2024/01/28 04:16:41;;;;;;;14.63;8.18;;;;;;;2.06;71.83;102326.50;4132098;28;20539;-62
2024/01/28 04:18:45;;;;;;;23.30;9.95;;;;;;;2.07;71.49;102314.56;4131915;28;20042;-62
2024/01/28 04:20:48;;;;;;;17.33;7.38;;;;;;;2.09;71.33;102318.16;4132139;28;20537;-62
2024/01/28 04:22:51;;;;;;;20.50;9.10;;;;;;;2.03;71.63;102317.66;4132466;28;20057;-62
2024/01/28 04:24:54;;;;;;;21.92;7.93;;;;;;;2.00;72.11;102319.97;4131159;28;20061;-62
2024/01/28 04:26:57;;;;;;;17.10;8.45;;;;;;;2.00;71.60;102315.78;4142904;28;20038;-62
2024/01/28 04:29:01;;;;;;;14.32;7.95;;;;;;;2.08;71.88;102313.81;4132152;28;20397;-63
2024/01/28 04:31:03;;;;;;;25.88;9.85;;;;;;;2.06;71.48;102318.81;4131060;28;20046;-63
2024/01/28 04:33:06;;;;;;;19.25;9.35;;;;;;;2.07;71.93;102320.63;4133829;28;20089;-62
2024/01/28 04:35:12;;;;;;;16.35;7.90;;;;;;;2.09;71.88;102320.72;4131837;28;20141;-62
2024/01/28 04:37:15;;;;;;;20.35;9.02;;;;;;;2.08;71.97;102311.22;4131821;28;20173;-63
2024/01/28 04:39:19;;;;;;;23.23;9.45;;;;;;;2.09;71.63;102316.47;4123830;28;20381;-63
2024/01/28 04:41:22;;;;;;;21.25;8.50;;;;;;;2.12;71.27;102310.72;4145821;28;20041;-62
2024/01/28 04:43:25;;;;;;;21.85;8.38;;;;;;;2.03;71.48;102305.75;4131772;28;20098;-61
2024/01/28 04:45:28;;;;;;;14.27;6.93;;;;;;;1.99;71.72;102308.84;4130739;28;20046;-62
2024/01/28 04:47:31;;;;;;;17.25;8.20;;;;;;;1.94;71.91;102307.56;4146673;28;20119;-62
2024/01/28 04:49:34;;;;;;;18.52;9.20;;;;;;;1.92;72.36;102304.00;4129990;28;20456;-63
2024/01/28 04:51:39;;;;;;;22.77;8.77;;;;;;;1.99;71.98;102307.97;4125146;28;20042;-63
2024/01/28 04:53:42;;;;;;;25.58;8.75;;;;;;;1.99;71.89;102310.53;4130671;28;20046;-63
2024/01/28 04:55:45;;;;;;;20.02;8.13;;;;;;;1.94;72.17;102317.81;4127905;28;20066;-63
2024/01/28 04:57:48;;;;;;;18.67;8.73;;;;;;;1.88;72.59;102309.66;4129085;28;20041;-62
2024/01/28 04:59:51;;;;;;;15.60;8.52;;;;;;;1.84;72.55;102305.97;4130088;28;20045;-62
2024/01/28 05:01:53;;;;;;;19.45;8.20;;;;;;;1.86;72.33;102306.97;4130190;28;20039;-62
2024/01/28 05:03:55;;;;;;;21.15;9.20;;;;;;;1.89;72.80;102306.31;4131104;28;20034;-62
2024/01/28 05:05:59;;;;;;;19.38;7.78;;;;;;;1.90;72.63;102308.13;4130511;28;20046;-63
2024/01/28 05:08:03;;;;;;;18.65;8.75;;;;;;;1.86;72.63;102301.84;4130523;28;20046;-63
2024/01/28 05:10:08;;;;;;;17.70;7.82;;;;;;;1.83;72.87;102301.59;4131305;28;20859;-63
2024/01/28 05:12:11;;;;;;;;;;;;;;;1.76;73.04;102308.69;4130346;28;20062;-63
2024/01/28 05:14:14;;;;;;;17.75;8.60;;;;;;;1.78;72.77;102294.31;4129804;28;19922;-63
2024/01/28 05:16:17;;;;;;;18.00;6.72;;;;;;;1.82;72.79;102288.66;4125072;28;20093;-63
2024/01/28 05:18:20;;;;;;;20.55;8.98;;;;;;;1.83;72.47;102287.91;4131026;28;20152;-62
2024/01/28 05:20:23;;;;;;;17.83;7.60;;;;;;;1.84;72.59;102284.53;4138836;28;20084;-63
2024/01/28 05:22:26;;;;;;;16.75;8.50;;;;;;;1.83;72.56;102280.22;4131520;28;20384;-62
2024/01/28 05:24:31;;;;;;;18.17;8.95;;;;;;;1.83;72.02;102281.09;4146995;28;20136;-62
2024/01/28 05:26:33;;;;;;;21.15;8.95;;;;;;;1.80;72.09;102293.66;4130361;28;20046;-62
2024/01/28 05:28:36;;;;;;;19.17;8.30;;;;;;;1.73;72.21;102305.09;4143783;28;20042;-63
2024/01/28 05:30:38;;;;;;;14.48;8.02;;;;;;;1.72;72.25;102312.66;4129646;28;20427;-63
2024/01/28 05:32:41;;;;;;;17.77;7.13;;;;;;;1.70;71.93;102309.97;4129486;28;20045;-63
2024/01/28 05:34:44;;;;;;;23.40;8.77;;;;;;;1.69;72.28;102305.63;4129890;28;20034;-63
2024/01/28 05:36:49;;;;;;;20.73;8.38;;;;;;;1.73;71.90;102302.53;4130868;28;20042;-63
2024/01/28 05:38:54;;;;;;;18.50;8.23;;;;;;;1.68;72.34;102297.81;4131677;28;20440;-62
2024/01/28 05:40:57;;;;;;;;;;;;;;;1.54;72.48;102295.03;4130535;28;20031;-63
2024/01/28 05:43:00;;;;;;;15.25;8.00;;;;;;;1.51;72.87;102297.34;4128498;28;20381;-61
2024/01/28 05:45:04;;;;;;;14.55;7.40;;;;;;;1.54;72.83;102286.47;4129528;28;20105;-62
2024/01/28 05:47:07;;;;;;;21.80;8.48;;;;;;;1.56;72.88;102290.94;4129615;28;20046;-63
2024/01/28 05:49:11;;;;;;;17.00;7.97;;;;;;;1.51;72.64;102292.22;4130823;28;20197;-62
2024/01/28 05:51:14;;;;;;;16.20;8.32;;;;;;;1.55;72.93;102288.25;4126813;28;20042;-63
2024/01/28 05:53:17;;;;;;;20.55;8.02;;;;;;;1.52;72.58;102293.13;4125581;28;20041;-62
2024/01/28 05:55:20;;;;;;;15.68;7.75;;;;;;;1.54;72.82;102282.22;4121747;28;20121;-62
2024/01/28 05:57:24;;;;;;;17.67;8.20;;;;;;;1.52;72.35;102288.00;4145738;28;20057;-63
2024/01/28 05:59:27;;;;;;;18.50;8.98;;;;;;;1.48;73.39;102297.13;4130562;28;20045;-62
2024/01/28 06:01:30;;;;;;;19.30;8.18;;;;;;;1.42;72.72;102296.63;4129137;28;20117;-61
2024/01/28 06:03:33;;;;;;;19.33;8.07;;;;;;;1.47;72.78;102291.88;4130127;28;20464;-63
2024/01/28 06:05:37;;;;;;;17.33;8.20;;;;;;;1.53;72.91;102300.97;4127484;28;20137;-63
2024/01/28 06:07:39;;;;;;;15.65;7.30;;;;;;;1.60;72.60;102299.75;4128349;28;20141;-62
2024/01/28 06:09:41;;;;;;;16.98;8.55;;;;;;;1.64;72.64;102295.78;4130191;28;20093;-62
2024/01/28 06:11:44;;;;;;;21.73;8.82;;;;;;;1.67;72.54;102299.47;4128364;28;20396;-63
2024/01/28 06:13:49;;;;;;;18.63;9.02;;;;;;;1.62;72.15;102305.00;4128526;28;20451;-62
2024/01/28 06:15:51;;;;;;;18.48;7.93;;;;;;;1.57;72.32;102296.97;4125605;28;20034;-62
2024/01/28 06:17:55;;;;;;;19.15;9.13;;;;;;;1.52;72.37;102294.03;4130366;28;20392;-63
2024/01/28 06:19:56;;;;;;;19.73;8.02;;;;;;;1.48;72.10;102299.69;4129630;28;20038;-63
2024/01/28 06:22:02;;;;;;;16.30;7.97;;;;;;;1.48;72.68;102293.66;4128811;28;20374;-62
2024/01/28 06:24:06;;;;;;;21.70;9.82;;;;;;;1.44;72.59;102289.06;4129884;28;20097;-61
2024/01/28 06:26:09;;;;;;;18.55;8.60;;;;;;;1.37;72.61;102286.00;4130068;28;20625;-62
2024/01/28 06:28:12;;;;;;;21.38;7.90;;;;;;;1.43;72.64;102297.50;4129672;28;20439;-62
2024/01/28 06:30:17;;;;;;;20.27;8.07;;;;;;;1.52;72.54;102298.25;4130851;28;20043;-62
2024/01/28 06:32:21;;;;;;;14.07;7.38;;;;;;;1.50;71.90;102299.78;4128364;28;20058;-62
2024/01/28 06:34:24;;;;;;;13.52;7.82;;;;;;;1.46;72.30;102300.31;4128081;28;20121;-63
2024/01/28 06:36:27;;;;;;;19.73;8.77;;;;;;;1.45;72.63;102298.53;4128970;28;20049;-62
2024/01/28 06:38:31;;;;;;;21.42;8.32;;;;;;;1.41;72.60;102299.06;4129787;28;20102;-62
2024/01/28 06:40:34;;;;;;;17.15;6.93;;;;;;;1.35;72.71;102297.78;4130940;28;20551;-62
2024/01/28 06:42:37;;;;;;;21.08;8.48;;;;;;;1.34;72.99;102284.84;4131641;28;20133;-62
2024/01/28 06:44:40;;;;;;;15.82;7.32;;;;;;;1.38;72.60;102282.66;4131978;28;20042;-63
2024/01/28 06:46:45;;;;;;;15.75;7.45;;;;;;;1.36;72.67;102276.53;4131806;28;20030;-63
2024/01/28 06:48:47;;;;;;;16.90;8.05;;;;;;;1.34;72.81;102279.72;4134285;28;20069;-62
2024/01/28 06:50:50;;;;;;;24.45;10.35;;;;;;;1.36;72.74;102289.34;4132706;28;20065;-63
2024/01/28 06:52:53;;;;;;;17.80;7.88;;;;;;;1.35;72.52;102284.97;4132062;28;20061;-63
2024/01/28 06:54:56;;;;;;;24.98;10.77;;;;;;;1.34;72.60;102283.19;4131566;28;20046;-63
2024/01/28 06:56:59;;;;;;;15.65;8.35;;;;;;;1.33;72.44;102289.09;4126080;28;20125;-63
2024/01/28 06:59:02;;;;;;;18.58;7.65;;;;;;;1.34;72.50;102278.06;4133854;28;20038;-63
2024/01/28 07:01:05;;;;;;;20.30;9.30;;;;;;;1.33;72.32;102283.97;4131880;28;20035;-62
2024/01/28 07:03:11;;;;;;;16.80;7.45;;;;;;;1.28;72.82;102292.03;4129567;28;21265;-62
2024/01/28 07:05:14;;;;;;;15.13;8.68;;;;;;;1.24;72.50;102292.56;4132615;28;20050;-62
2024/01/28 07:07:18;;;;;;;21.40;8.45;;;;;;;1.20;73.41;102299.13;4130989;28;20142;-62
2024/01/28 07:09:21;;;;;;;19.00;8.55;;;;;;;1.19;73.07;102297.31;4132193;28;20056;-62
2024/01/28 07:11:24;;;;;;;19.60;7.90;;;;;;;1.22;73.36;102297.56;4131017;28;20037;-62
2024/01/28 07:13:27;;;;;;;22.65;9.05;;;;;;;1.19;73.46;102295.63;4132715;28;20070;-62
2024/01/28 07:15:30;;;;;;;21.38;9.30;;;;;;;1.18;73.72;102292.94;4132030;28;20042;-62
2024/01/28 07:17:33;;;;;;;13.52;8.40;;;;;;;1.21;73.82;102295.75;4132614;28;20046;-62
2024/01/28 07:19:40;;;;;;;13.82;8.57;;;;;;;1.21;73.83;102291.56;4148699;28;20037;-61
2024/01/28 07:21:44;;;;;;;18.00;8.88;;;;;;;1.12;74.07;102293.34;4131035;28;20053;-64
2024/01/28 07:23:47;;;;;;;17.95;9.02;;;;;;;1.11;74.18;102293.22;4133426;28;20130;-63
2024/01/28 07:25:50;;;;;;;14.73;7.78;;;;;;;1.12;74.19;102300.13;4130190;28;20046;-63
2024/01/28 07:27:53;;;;;;;23.00;9.32;;;;;;;1.11;74.37;102295.78;4131291;28;20069;-63
2024/01/28 07:29:56;;;;;;;20.10;8.52;;;;;;;1.13;74.75;102296.81;4132137;28;20034;-62
2024/01/28 07:31:59;;;;;;;16.60;8.75;;;;;;;1.17;74.31;102291.19;4133026;28;20034;-63
2024/01/28 07:34:03;;;;;;;14.57;6.80;;;;;;;1.19;74.20;102293.06;4130901;28;20038;-63
2024/01/28 07:36:08;;;;;;;12.95;6.93;;;;;;;1.21;73.80;102285.50;4133029;28;20121;-63
2024/01/28 07:38:11;;;;;;;17.58;9.25;;;;;;;1.23;74.66;102291.69;4132549;28;20092;-63
2024/01/28 07:40:13;;;;;;;20.60;8.73;;;;;;;1.31;73.92;102290.59;4133115;28;20047;-70
2024/01/28 07:42:17;;;;;;;25.80;9.40;;;;;;;2.65;82.47;102284.81;4131436;28;20532;-68
2024/01/28 07:44:23;;;;;;;19.77;10.60;;;;;;;2.90;79.31;102290.09;4129578;28;20048;-61
2024/01/28 07:46:26;;;;;;;19.63;9.77;;;;;;;2.72;74.67;102284.50;4144428;28;20038;-63
2024/01/28 07:48:29;;;;;;;24.95;10.15;;;;;;;2.47;74.15;102284.31;4131027;28;20101;-62
2024/01/28 07:50:32;;;;;;;18.65;9.57;;;;;;;2.30;73.46;102282.13;4131366;28;20622;-62
2024/01/28 07:52:36;;;;;;;20.48;9.85;;;;;;;2.16;73.77;102291.31;4129882;28;20493;-62
2024/01/28 07:54:39;;;;;;;20.33;8.80;;;;;;;2.00;73.87;102287.56;4133016;28;20034;-66
2024/01/28 07:56:42;;;;;;;17.80;9.45;;;;;;;1.87;73.76;102288.25;4130968;28;20126;-61
2024/01/28 07:58:45;;;;;;;18.95;8.98;;;;;;;1.83;73.59;102288.78;4131505;28;20038;-62
2024/01/28 08:00:48;;;;;;;19.92;10.98;;;;;;;1.82;73.92;102286.09;4131864;28;20084;-62
2024/01/28 08:02:51;;;;;;;18.30;9.75;;;;;;;1.82;73.77;102284.41;4132415;28;20465;-62
2024/01/28 08:04:58;;;;;;;17.45;9.73;;;;;;;1.82;73.49;102278.41;4133055;28;20042;-62
2024/01/28 08:07:02;;;;;;;22.30;11.15;;;;;;;1.82;73.18;102284.41;4131958;28;20449;-62
2024/01/28 08:09:06;;;;;;;18.70;9.95;;;;;;;1.83;73.10;102285.34;4132950;28;20129;-62
2024/01/28 08:11:09;;;;;;;17.42;9.80;;;;;;;1.84;73.54;102292.22;4132999;28;20053;-62
2024/01/28 08:13:12;;;;;;;21.40;10.30;;;;;;;1.87;73.51;102285.69;4128958;28;20039;-62
2024/01/28 08:15:15;;;;;;;16.70;9.18;;;;;;;1.87;73.27;102285.69;4132703;28;20046;-62
2024/01/28 08:17:18;;;;;;;18.52;9.82;;;;;;;1.87;73.23;102277.09;4131707;28;20046;-63
2024/01/28 08:19:21;;;;;;;24.05;13.07;;;;;;;1.90;73.02;102273.09;4131595;28;20531;-62
2024/01/28 08:21:24;;;;;;;19.10;10.77;;;;;;;1.89;72.79;102273.88;4131486;28;20046;-63
2024/01/28 08:23:29;;;;;;;22.10;9.77;;;;;;;1.89;72.74;102276.44;4130630;28;20070;-62
2024/01/28 08:25:33;;;;;;;19.70;10.77;;;;;;;1.93;72.23;102282.72;4127928;28;20038;-62
2024/01/28 08:27:36;;;;;;;23.63;10.48;;;;;;;1.92;72.58;102288.59;4129949;28;20038;-61
2024/01/28 08:29:39;;;;;;;21.48;9.00;;;;;;;1.94;72.46;102289.63;4126849;28;20072;-62
2024/01/28 08:31:42;;;;;;;18.45;10.05;;;;;;;1.96;72.19;102289.72;4130460;28;20073;-65
2024/01/28 08:33:45;;;;;;;18.05;9.27;;;;;;;1.98;72.55;102290.78;4131231;28;20488;-62
2024/01/28 08:35:48;;;;;;;29.63;11.52;;;;;;;2.50;75.90;102288.75;4131576;28;20065;-62
2024/01/28 08:37:51;;;;;;;27.30;10.73;;;;;;;2.61;75.15;102290.47;4130278;28;20140;-64
2024/01/28 08:39:54;;;;;;;16.95;9.27;;;;;;;2.67;71.86;102284.91;4132551;28;20089;-63
2024/01/28 08:41:59;;;;;;;17.90;9.05;;;;;;;2.60;70.50;102286.16;4130669;28;20069;-63
2024/01/28 08:44:02;;;;;;;17.73;8.50;;;;;;;2.44;70.43;102287.53;4129722;28;20085;-65
2024/01/28 08:46:05;;;;;;;24.15;10.20;;;;;;;2.46;70.26;102287.66;4130808;28;20109;-65
2024/01/28 08:48:08;;;;;;;17.52;9.35;;;;;;;2.27;70.40;102287.91;4132317;28;20528;-65
2024/01/28 08:50:11;;;;;;;19.33;9.52;;;;;;;2.09;71.78;102283.13;4131166;28;20050;-65
2024/01/28 08:52:14;;;;;;;18.98;8.90;;;;;;;2.19;70.93;102288.97;4130736;28;20552;-66
2024/01/28 08:54:17;;;;;;;18.08;9.65;;;;;;;2.23;70.75;102288.44;4129193;28;20046;-64
2024/01/28 08:56:20;;;;;;;20.95;10.73;;;;;;;2.17;71.07;102291.41;4131209;28;20100;-65
2024/01/28 08:58:24;;;;;;;15.88;9.10;;;;;;;2.18;71.22;102285.53;4129455;28;20117;-66
2024/01/28 09:00:27;;;;;;;18.50;8.90;;;;;;;2.34;70.48;102295.31;4131212;28;20042;-66
2024/01/28 09:02:35;;;;;;;17.70;8.70;;;;;;;2.22;70.66;102289.19;4131838;28;20045;-67
2024/01/28 09:04:37;;;;;;;21.08;9.38;;;;;;;2.21;71.19;102290.00;4131761;28;20046;-67
2024/01/28 09:06:41;;;;;;;17.45;7.75;;;;;;;2.21;71.58;102292.56;4128647;28;20146;-66
2024/01/28 09:08:43;;;;;;;20.48;10.18;;;;;;;2.29;71.58;102294.03;4131197;28;20074;-66
2024/01/28 09:10:45;;;;;;;24.40;10.48;;;;;;;2.57;70.07;102298.72;4131875;28;20497;-64
2024/01/28 09:12:48;;;;;;;21.95;10.48;;;;;;;2.56;70.20;102312.34;4130470;28;20034;-67
2024/01/28 09:14:53;;;;;;;22.45;9.40;;;;;;;2.40;70.65;102306.03;4130746;28;20121;-66
2024/01/28 09:16:56;;;;;;;16.73;9.38;;;;;;;2.44;70.44;102302.06;4130776;28;20530;-72
2024/01/28 09:19:03;;;;;;;19.98;9.82;;;;;;;2.46;70.47;102309.88;4131426;28;20064;-67
2024/01/28 09:21:06;;;;;;;16.23;10.07;;;;;;;2.43;70.73;102305.38;4130935;28;20407;-66
2024/01/28 09:23:09;;;;;;;19.08;9.23;;;;;;;2.44;70.77;102309.75;4127699;28;20038;-65
2024/01/28 09:25:12;;;;;;;19.38;8.48;;;;;;;2.46;71.58;102302.16;4131474;28;20050;-63
2024/01/28 09:27:17;;;;;;;18.10;9.48;;;;;;;2.51;71.26;102306.88;4135992;28;20479;-64
2024/01/28 09:29:20;;;;;;;23.52;9.15;;;;;;;2.44;71.42;102302.94;4128361;28;20536;-65
2024/01/28 09:31:25;;;;;;;21.75;10.25;;;;;;;2.53;71.37;102314.69;4130288;28;20050;-63
2024/01/28 09:33:28;;;;;;;19.40;12.35;;;;;;;2.72;70.83;102317.88;4130481;28;20500;-67